createdAt,value
2023-02-25T00:01:36.768Z,84.90
2023-02-25T00:04:04.037Z,84.70
2023-02-25T00:06:30.895Z,85.20
2023-02-25T00:08:57.724Z,85.50
2023-02-25T00:11:26.256Z,85.60
2023-02-25T00:13:53.448Z,85.40
2023-02-25T00:16:23.672Z,85.10
2023-02-25T00:18:58.806Z,84.90
2023-02-25T00:21:25.956Z,84.30
2023-02-25T00:23:53.657Z,84.60
2023-02-25T00:26:21.802Z,84.40
2023-02-25T00:28:49.549Z,84.40
2023-02-25T00:31:21.217Z,84.20
2023-02-25T00:33:49.509Z,84.10
2023-02-25T00:36:24.325Z,84.60
2023-02-25T00:38:54.229Z,84.50
2023-02-25T00:41:26.832Z,85.00
2023-02-25T00:43:59.676Z,84.50
2023-02-25T00:46:28.732Z,84.40
2023-02-25T00:48:55.865Z,84.40
2023-02-25T00:51:27.784Z,84.80
2023-02-25T00:53:56.490Z,84.60
2023-02-25T00:56:26.070Z,84.50
2023-02-25T00:58:54.136Z,84.00
2023-02-25T01:01:31.699Z,84.10
2023-02-25T01:03:59.885Z,83.90
2023-02-25T01:06:28.820Z,84.00
2023-02-25T01:08:57.642Z,83.90
2023-02-25T01:11:30.119Z,83.90
2023-02-25T01:13:59.945Z,83.90
2023-02-25T01:16:30.290Z,84.00
2023-02-25T01:19:00.833Z,84.20
2023-02-25T01:21:35.861Z,84.20
2023-02-25T01:24:15.827Z,84.00
2023-02-25T01:26:45.822Z,84.20
2023-02-25T01:29:23.360Z,84.30
2023-02-25T01:31:56.259Z,84.10
2023-02-25T01:34:24.295Z,84.30
2023-02-25T01:36:51.900Z,84.50
2023-02-25T01:39:21.457Z,84.80
2023-02-25T01:41:51.209Z,84.70
2023-02-25T01:44:21.371Z,84.70
2023-02-25T01:46:54.096Z,84.50
2023-02-25T01:49:43.679Z,84.40
2023-02-25T01:52:20.100Z,84.40
2023-02-25T01:54:53.274Z,84.60
2023-02-25T01:57:21.749Z,84.60
2023-02-25T01:59:51.635Z,84.60
2023-02-25T02:02:23.051Z,84.70
2023-02-25T02:04:54.124Z,84.70
2023-02-25T02:07:24.661Z,84.90
2023-02-25T02:09:58.416Z,84.90
2023-02-25T02:12:47.051Z,85.20
2023-02-25T02:15:15.811Z,84.80
2023-02-25T02:17:52.103Z,85.30
2023-02-25T02:20:37.788Z,85.30
2023-02-25T02:23:22.117Z,85.30
2023-02-25T02:26:32.018Z,85.60
2023-02-25T02:29:36.700Z,85.30
2023-02-25T02:32:32.799Z,85.30
2023-02-25T02:35:18.265Z,85.30
2023-02-25T02:38:34.040Z,85.60
2023-02-25T02:41:41.429Z,85.60
2023-02-25T02:44:27.197Z,85.00
2023-02-25T02:47:12.209Z,85.40
2023-02-25T02:49:57.734Z,85.30
2023-02-25T02:52:31.972Z,85.50
2023-02-25T02:55:22.181Z,85.50
2023-02-25T02:58:00.521Z,85.20
2023-02-25T03:00:36.347Z,85.50
2023-02-25T03:03:16.111Z,85.60
2023-02-25T03:05:50.176Z,85.70
2023-02-25T03:08:30.445Z,85.80
2023-02-25T03:10:57.243Z,85.70
2023-02-25T03:13:24.144Z,85.60
2023-02-25T03:15:53.357Z,85.60
2023-02-25T03:18:43.627Z,85.60
2023-02-25T03:21:26.643Z,85.30
2023-02-25T03:23:54.871Z,85.20
2023-02-25T03:26:30.908Z,85.40
2023-02-25T03:28:58.633Z,85.30
2023-02-25T03:31:48.992Z,85.50
2023-02-25T03:34:27.400Z,85.20
2023-02-25T03:37:15.496Z,85.50
2023-02-25T03:39:49.346Z,85.40
2023-02-25T03:42:28.714Z,85.70
2023-02-25T03:45:02.052Z,85.90
2023-02-25T03:47:34.530Z,86.20
2023-02-25T03:50:11.981Z,86.20
2023-02-25T03:52:41.330Z,86.20
2023-02-25T03:55:10.309Z,86.20
2023-02-25T03:57:44.744Z,86.20
2023-02-25T04:00:26.996Z,86.20
2023-02-25T04:02:54.213Z,86.00
2023-02-25T04:05:27.642Z,86.30
2023-02-25T04:07:56.258Z,86.30
2023-02-25T04:10:23.536Z,86.30
2023-02-25T04:12:51.248Z,86.20
2023-02-25T04:15:19.786Z,86.30
2023-02-25T04:17:46.964Z,86.30
2023-02-25T04:20:19.797Z,86.30
2023-02-25T04:22:46.592Z,86.30
2023-02-25T04:25:13.469Z,86.30
2023-02-25T04:27:40.280Z,86.30
2023-02-25T04:30:08.829Z,86.30
2023-02-25T04:32:35.766Z,86.40
2023-02-25T04:35:05.926Z,86.30
2023-02-25T04:37:32.790Z,86.40
2023-02-25T04:39:59.612Z,86.40
2023-02-25T04:42:26.542Z,86.30
2023-02-25T04:44:53.369Z,86.20
2023-02-25T04:47:20.246Z,86.10
2023-02-25T04:49:47.052Z,86.10
2023-02-25T04:52:15.334Z,86.00
2023-02-25T04:54:42.503Z,86.10
2023-02-25T04:57:11.165Z,86.20
2023-02-25T04:59:38.680Z,86.30
2023-02-25T05:02:07.428Z,86.30
2023-02-25T05:04:36.849Z,86.20
2023-02-25T05:07:05.844Z,86.20
2023-02-25T05:09:34.043Z,86.30
2023-02-25T05:12:02.129Z,86.30
2023-02-25T05:14:30.826Z,86.20
2023-02-25T05:16:59.466Z,86.10
2023-02-25T05:19:26.244Z,85.90
2023-02-25T05:21:53.973Z,86.00
2023-02-25T05:24:23.499Z,86.30
2023-02-25T05:26:51.624Z,87.60
2023-02-25T05:29:18.798Z,88.30
2023-02-25T05:31:45.922Z,88.40
2023-02-25T05:34:12.853Z,88.30
2023-02-25T05:36:41.095Z,88.30
2023-02-25T05:39:07.912Z,88.10
2023-02-25T05:41:34.716Z,88.10
2023-02-25T05:44:01.526Z,87.80
2023-02-25T05:46:28.451Z,87.70
2023-02-25T05:48:55.282Z,87.60
2023-02-25T05:51:23.619Z,87.40
2023-02-25T05:53:52.421Z,87.20
2023-02-25T05:56:25.714Z,87.30
2023-02-25T05:58:53.868Z,87.20
2023-02-25T06:01:28.703Z,87.20
2023-02-25T06:03:58.510Z,86.80
2023-02-25T06:06:29.209Z,86.60
2023-02-25T06:08:56.326Z,86.30
2023-02-25T06:11:29.736Z,86.10
2023-02-25T06:13:58.581Z,85.90
2023-02-25T06:16:32.653Z,86.00
2023-02-25T06:19:02.389Z,86.00
2023-02-25T06:21:30.572Z,85.70
2023-02-25T06:23:57.804Z,85.90
2023-02-25T06:26:24.974Z,85.90
2023-02-25T06:28:52.151Z,86.10
2023-02-25T06:31:22.429Z,86.20
2023-02-25T06:33:52.411Z,86.30
2023-02-25T06:36:21.513Z,86.40
2023-02-25T06:38:49.334Z,86.50
2023-02-25T06:41:20.942Z,86.40
2023-02-25T06:43:52.235Z,86.20
2023-02-25T06:46:26.208Z,86.30
2023-02-25T06:48:54.170Z,86.20
2023-02-25T06:51:21.963Z,86.50
2023-02-25T06:53:49.787Z,86.70
2023-02-25T06:56:18.319Z,86.90
2023-02-25T06:58:45.362Z,87.10
2023-02-25T07:01:16.070Z,87.20
2023-02-25T07:03:43.628Z,87.20
2023-02-25T07:06:11.678Z,85.60
2023-02-25T07:08:38.546Z,87.10
2023-02-25T07:11:30.694Z,87.20
2023-02-25T07:13:57.861Z,86.80
2023-02-25T07:16:25.563Z,87.20
2023-02-25T07:18:52.507Z,87.30
2023-02-25T07:21:19.978Z,87.40
2023-02-25T07:23:47.010Z,87.50
2023-02-25T07:26:15.699Z,87.30
2023-02-25T07:28:43.606Z,87.10
2023-02-25T07:31:17.929Z,87.20
2023-02-25T07:33:45.503Z,87.20
2023-02-25T07:36:12.763Z,87.30
2023-02-25T07:38:40.022Z,87.30
2023-02-25T07:41:13.093Z,87.40
2023-02-25T07:43:40.488Z,87.50
2023-02-25T07:46:08.521Z,87.60
2023-02-25T07:48:35.988Z,87.40
2023-02-25T07:51:08.807Z,87.50
2023-02-25T07:53:35.943Z,87.30
2023-02-25T07:56:03.338Z,87.60
2023-02-25T07:58:30.299Z,87.60
2023-02-25T08:00:57.164Z,87.60
2023-02-25T08:03:24.445Z,87.50
2023-02-25T08:05:54.251Z,87.50
2023-02-25T08:08:21.968Z,87.50
2023-02-25T08:10:49.006Z,87.30
2023-02-25T08:13:15.946Z,87.70
2023-02-25T08:15:43.949Z,87.80
2023-02-25T08:18:11.671Z,87.90
2023-02-25T08:20:38.671Z,88.20
2023-02-25T08:23:06.346Z,88.50
2023-02-25T08:25:33.272Z,88.10
2023-02-25T08:28:01.697Z,87.60
2023-02-25T08:30:28.576Z,86.90
2023-02-25T08:32:57.404Z,86.70
2023-02-25T08:35:25.774Z,86.80
2023-02-25T08:37:53.193Z,87.00
2023-02-25T08:40:20.668Z,87.10
2023-02-25T08:42:47.450Z,86.90
2023-02-25T08:45:14.289Z,86.60
2023-02-25T08:47:41.144Z,86.00
2023-02-25T08:50:09.890Z,86.00
2023-02-25T08:52:36.765Z,86.60
2023-02-25T08:55:04.665Z,87.60
2023-02-25T08:57:31.787Z,88.30
2023-02-25T08:59:58.588Z,88.80
2023-02-25T09:02:25.521Z,88.00
2023-02-25T09:04:52.574Z,87.00
2023-02-25T09:07:20.383Z,86.00
2023-02-25T09:09:47.271Z,85.60
2023-02-25T09:12:14.234Z,86.20
2023-02-25T09:14:41.047Z,87.00
2023-02-25T09:17:08.350Z,89.10
2023-02-25T09:19:38.771Z,89.60
2023-02-25T09:22:07.678Z,88.10
2023-02-25T09:24:35.127Z,86.30
2023-02-25T09:27:08.091Z,85.70
2023-02-25T09:29:36.895Z,85.20
2023-02-25T09:32:05.324Z,84.80
2023-02-25T09:34:35.931Z,84.20
2023-02-25T09:37:06.300Z,84.00
2023-02-25T09:39:33.097Z,82.90
2023-02-25T09:42:10.534Z,83.40
2023-02-25T09:44:48.103Z,81.40
2023-02-25T09:47:29.095Z,81.80
2023-02-25T09:50:21.580Z,81.80
2023-02-25T09:53:15.856Z,82.70
2023-02-25T09:55:48.779Z,82.60
2023-02-25T09:58:36.145Z,84.30
2023-02-25T10:01:11.839Z,81.80
2023-02-25T10:03:56.918Z,82.70
2023-02-25T10:06:44.353Z,81.50
2023-02-25T10:09:37.446Z,81.10
2023-02-25T10:12:37.479Z,79.50
2023-02-25T10:15:39.831Z,79.10
2023-02-25T10:18:29.186Z,82.90
2023-02-25T10:21:14.220Z,78.70
2023-02-25T10:23:51.591Z,79.60
2023-02-25T10:26:33.602Z,80.30
2023-02-25T10:29:21.056Z,81.20
2023-02-25T10:31:48.438Z,83.60
2023-02-25T10:34:26.244Z,84.50
2023-02-25T10:36:59.702Z,83.60
2023-02-25T10:39:28.860Z,84.00
2023-02-25T10:41:56.279Z,85.00
2023-02-25T10:44:23.192Z,85.10
2023-02-25T10:47:00.203Z,85.30
2023-02-25T10:49:30.504Z,84.20
2023-02-25T10:52:19.942Z,85.40
2023-02-25T10:54:51.941Z,85.40
2023-02-25T10:57:26.670Z,85.90
2023-02-25T11:00:23.916Z,84.90
2023-02-25T11:02:52.528Z,82.70
2023-02-25T11:05:43.565Z,85.60
2023-02-25T11:08:29.126Z,80.30
2023-02-25T11:11:20.131Z,80.90
2023-02-25T11:14:01.845Z,82.60
2023-02-25T11:16:31.656Z,80.70
2023-02-25T11:19:25.586Z,84.40
2023-02-25T11:21:53.918Z,83.80
2023-02-25T11:24:37.375Z,85.60
2023-02-25T11:27:07.401Z,83.00
2023-02-25T11:29:41.364Z,85.70
2023-02-25T11:32:21.713Z,85.20
2023-02-25T11:35:09.033Z,82.90
2023-02-25T11:37:43.047Z,83.40
2023-02-25T11:40:33.232Z,86.40
2023-02-25T11:43:06.069Z,82.20
2023-02-25T11:45:52.874Z,84.00
2023-02-25T11:48:34.457Z,80.80
2023-02-25T11:51:20.298Z,86.20
2023-02-25T11:54:25.892Z,83.00
2023-02-25T11:57:05.636Z,82.20
2023-02-25T12:00:20.798Z,85.00
2023-02-25T12:03:23.443Z,78.70
2023-02-25T12:06:08.262Z,79.40
2023-02-25T12:09:05.783Z,86.00
2023-02-25T12:12:24.818Z,81.10
2023-02-25T12:15:12.601Z,85.30
2023-02-25T12:18:01.667Z,85.00
2023-02-25T12:20:51.089Z,78.80
2023-02-25T12:23:40.810Z,84.50
2023-02-25T12:26:34.180Z,82.60
2023-02-25T12:29:16.346Z,81.50
2023-02-25T12:32:20.688Z,81.80
2023-02-25T12:35:34.623Z,79.20
2023-02-25T12:38:57.315Z,81.20
2023-02-25T12:41:40.536Z,78.80
2023-02-25T12:44:37.221Z,82.70
2023-02-25T12:47:27.207Z,80.50
2023-02-25T12:50:18.602Z,78.20
2023-02-25T12:53:22.061Z,86.30
2023-02-25T12:56:54.335Z,78.40
2023-02-25T12:59:53.631Z,76.00
2023-02-25T13:03:15.415Z,78.40
2023-02-25T13:06:15.045Z,75.90
2023-02-25T13:09:26.638Z,76.10
2023-02-25T13:12:23.198Z,81.90
2023-02-25T13:15:10.983Z,75.90
2023-02-25T13:18:23.930Z,78.70
2023-02-25T13:21:06.230Z,80.80
2023-02-25T13:23:53.863Z,79.00
2023-02-25T13:27:10.145Z,80.40
2023-02-25T13:30:28.405Z,78.20
2023-02-25T13:33:01.200Z,79.50
2023-02-25T13:35:46.085Z,85.10
2023-02-25T13:39:13.099Z,79.70
2023-02-25T13:42:28.569Z,78.50
2023-02-25T13:45:43.394Z,80.60
2023-02-25T13:48:48.730Z,77.10
2023-02-25T13:51:53.930Z,83.60
2023-02-25T13:55:04.008Z,78.60
2023-02-25T13:57:55.811Z,82.80
2023-02-25T14:01:07.526Z,81.20
2023-02-25T14:04:12.980Z,79.20
2023-02-25T14:07:16.930Z,86.80
2023-02-25T14:10:29.430Z,77.40
2023-02-25T14:14:11.691Z,79.30
2023-02-25T14:17:09.674Z,73.80
2023-02-25T14:20:11.786Z,76.20
2023-02-25T14:22:49.092Z,75.90
2023-02-25T14:25:50.827Z,79.30
2023-02-25T14:29:21.815Z,74.80
2023-02-25T14:32:14.013Z,77.70
2023-02-25T14:34:56.108Z,77.60
2023-02-25T14:37:59.316Z,77.50
2023-02-25T14:40:40.027Z,77.60
2023-02-25T14:43:06.811Z,80.80
2023-02-25T14:46:32.022Z,82.20
2023-02-25T14:49:11.223Z,75.10
2023-02-25T14:52:02.423Z,78.10
2023-02-25T14:54:39.160Z,75.80
2023-02-25T14:57:42.933Z,80.70
2023-02-25T15:00:52.853Z,73.80
2023-02-25T15:03:51.278Z,73.90
2023-02-25T15:06:37.031Z,75.30
2023-02-25T15:09:47.842Z,74.10
2023-02-25T15:12:52.894Z,77.10
2023-02-25T15:15:47.722Z,74.10
2023-02-25T15:19:07.135Z,75.40
2023-02-25T15:21:46.363Z,74.30
2023-02-25T15:24:49.463Z,81.00
2023-02-25T15:27:56.598Z,75.20
2023-02-25T15:30:26.471Z,73.90
2023-02-25T15:33:22.787Z,81.30
2023-02-25T15:35:49.519Z,76.50
2023-02-25T15:38:41.167Z,81.20
2023-02-25T15:41:42.664Z,79.40
2023-02-25T15:44:12.480Z,74.70
2023-02-25T15:47:10.552Z,81.40
2023-02-25T15:49:38.501Z,79.80
2023-02-25T15:52:09.455Z,81.40
2023-02-25T15:54:36.224Z,81.00
2023-02-25T15:57:24.671Z,81.20
2023-02-25T15:59:57.724Z,80.40
2023-02-25T16:02:30.366Z,79.40
2023-02-25T16:05:20.435Z,80.10
2023-02-25T16:08:11.853Z,74.70
2023-02-25T16:10:48.202Z,80.70
2023-02-25T16:13:29.960Z,79.40
2023-02-25T16:15:57.968Z,78.30
2023-02-25T16:18:47.724Z,81.00
2023-02-25T16:21:26.932Z,76.10
2023-02-25T16:23:55.072Z,79.00
2023-02-25T16:26:47.807Z,81.20
2023-02-25T16:29:29.659Z,75.00
2023-02-25T16:32:32.967Z,77.80
2023-02-25T16:35:18.282Z,80.00
2023-02-25T16:38:07.903Z,81.50
2023-02-25T16:40:39.971Z,77.90
2023-02-25T16:43:14.236Z,80.60
2023-02-25T16:46:02.568Z,79.90
2023-02-25T16:48:34.605Z,76.70
2023-02-25T16:51:36.789Z,79.80
2023-02-25T16:54:33.276Z,78.30
2023-02-25T16:57:03.989Z,74.40
2023-02-25T16:59:33.825Z,80.90
2023-02-25T17:02:21.138Z,80.80
2023-02-25T17:04:54.360Z,80.50
2023-02-25T17:07:31.549Z,79.70
2023-02-25T17:10:02.420Z,78.20
2023-02-25T17:12:45.561Z,81.10
2023-02-25T17:15:23.769Z,77.60
2023-02-25T17:18:10.765Z,79.80
2023-02-25T17:20:38.241Z,80.80
2023-02-25T17:23:13.104Z,81.30
2023-02-25T17:25:48.505Z,80.60
2023-02-25T17:28:25.960Z,79.00
2023-02-25T17:31:05.026Z,78.50
2023-02-25T17:33:32.136Z,80.80
2023-02-25T17:36:11.261Z,80.90
2023-02-25T17:38:39.202Z,77.50
2023-02-25T17:41:06.277Z,81.00
2023-02-25T17:43:39.058Z,81.10
2023-02-25T17:46:15.653Z,79.80
2023-02-25T17:48:51.619Z,78.10
2023-02-25T17:51:27.114Z,81.20
2023-02-25T17:54:09.206Z,81.60
2023-02-25T17:56:37.043Z,77.40
2023-02-25T17:59:14.770Z,81.70
2023-02-25T18:01:55.484Z,81.30
2023-02-25T18:04:35.351Z,79.70
2023-02-25T18:07:33.326Z,80.60
2023-02-25T18:10:01.240Z,77.40
2023-02-25T18:12:37.819Z,80.30
2023-02-25T18:15:24.396Z,79.70
2023-02-25T18:18:01.392Z,76.50
2023-02-25T18:20:35.932Z,78.80
2023-02-25T18:23:21.050Z,79.20
2023-02-25T18:26:11.105Z,78.80
2023-02-25T18:28:39.004Z,78.60
2023-02-25T18:31:06.182Z,78.50
2023-02-25T18:33:33.049Z,78.20
2023-02-25T18:36:00.519Z,78.20
2023-02-25T18:38:30.125Z,78.50
2023-02-25T18:40:57.658Z,78.80
2023-02-25T18:43:30.594Z,79.10
2023-02-25T18:45:57.755Z,79.40
2023-02-25T18:48:24.847Z,79.70
2023-02-25T18:50:52.268Z,80.60
2023-02-25T18:53:24.956Z,80.30
2023-02-25T18:55:54.412Z,80.20
2023-02-25T18:58:22.330Z,80.80
2023-02-25T19:00:57.061Z,80.70
2023-02-25T19:03:33.064Z,80.90
2023-02-25T19:06:00.437Z,80.60
2023-02-25T19:08:27.526Z,81.50
2023-02-25T19:10:55.262Z,81.50
2023-02-25T19:13:34.650Z,81.70
2023-02-25T19:16:02.143Z,81.10
2023-02-25T19:18:29.362Z,81.80
2023-02-25T19:20:56.807Z,81.90
2023-02-25T19:23:23.911Z,82.10
2023-02-25T19:25:58.290Z,82.10
2023-02-25T19:28:25.201Z,82.00
2023-02-25T19:30:52.135Z,82.20
2023-02-25T19:33:19.061Z,82.10
2023-02-25T19:35:45.965Z,81.90
2023-02-25T19:38:18.651Z,81.90
2023-02-25T19:40:47.614Z,81.60
2023-02-25T19:43:15.981Z,81.90
2023-02-25T19:45:43.054Z,81.80
2023-02-25T19:48:10.693Z,82.00
2023-02-25T19:50:40.990Z,82.10
2023-02-25T19:53:07.992Z,82.20
2023-02-25T19:55:35.315Z,82.20
2023-02-25T19:58:02.306Z,82.20
2023-02-25T20:00:29.437Z,82.30
2023-02-25T20:02:56.337Z,82.40
2023-02-25T20:05:24.480Z,82.50
2023-02-25T20:07:51.968Z,82.70
2023-02-25T20:10:19.709Z,82.70
2023-02-25T20:12:47.809Z,82.70
2023-02-25T20:15:16.175Z,82.40
2023-02-25T20:17:45.268Z,82.30
2023-02-25T20:20:14.587Z,82.20
2023-02-25T20:22:42.341Z,82.40
2023-02-25T20:25:10.323Z,82.60
2023-02-25T20:27:39.613Z,82.50
2023-02-25T20:30:07.722Z,82.50
2023-02-25T20:32:34.928Z,82.30
2023-02-25T20:35:02.303Z,82.30
2023-02-25T20:37:35.544Z,82.40
2023-02-25T20:40:04.025Z,82.30
2023-02-25T20:42:31.755Z,82.40
2023-02-25T20:45:00.252Z,82.50
2023-02-25T20:47:38.807Z,82.40
2023-02-25T20:50:07.830Z,81.90
2023-02-25T20:52:34.775Z,82.40
2023-02-25T20:55:01.696Z,82.60
2023-02-25T20:57:28.647Z,82.90
2023-02-25T20:59:55.576Z,83.10
2023-02-25T21:02:22.988Z,83.00
2023-02-25T21:04:50.479Z,83.10
2023-02-25T21:07:17.562Z,82.80
2023-02-25T21:09:44.447Z,82.20
2023-02-25T21:12:11.374Z,81.90
2023-02-25T21:14:38.244Z,81.80
2023-02-25T21:17:09.306Z,81.70
2023-02-25T21:19:38.719Z,81.70
2023-02-25T21:22:07.267Z,82.00
2023-02-25T21:24:34.905Z,81.50
2023-02-25T21:27:02.431Z,81.60
2023-02-25T21:29:29.533Z,81.70
2023-02-25T21:31:56.699Z,81.90
2023-02-25T21:34:23.572Z,82.10
2023-02-25T21:36:50.449Z,82.30
2023-02-25T21:39:17.295Z,82.40
2023-02-25T21:41:45.014Z,82.50
2023-02-25T21:44:12.658Z,82.60
2023-02-25T21:46:40.145Z,82.60
2023-02-25T21:49:07.118Z,82.50
2023-02-25T21:51:33.989Z,82.60
2023-02-25T21:54:02.258Z,82.70
2023-02-25T21:56:30.826Z,82.70
2023-02-25T21:59:03.850Z,82.70
2023-02-25T22:01:40.901Z,82.60
2023-02-25T22:04:09.766Z,82.50
2023-02-25T22:06:36.978Z,82.60
2023-02-25T22:09:04.591Z,82.60
2023-02-25T22:11:35.609Z,82.40
2023-02-25T22:14:05.579Z,82.40
2023-02-25T22:16:33.506Z,82.60
2023-02-25T22:19:00.555Z,82.40
2023-02-25T22:21:33.447Z,82.60
2023-02-25T22:24:02.704Z,82.10
2023-02-25T22:26:32.827Z,82.20
2023-02-25T22:29:03.911Z,82.00
2023-02-25T22:31:32.706Z,81.80
2023-02-25T22:34:00.733Z,82.00
2023-02-25T22:36:28.233Z,82.20
2023-02-25T22:38:56.442Z,82.80
2023-02-25T22:41:27.956Z,82.40
2023-02-25T22:43:56.765Z,82.10
2023-02-25T22:46:35.926Z,82.10
2023-02-25T22:49:04.740Z,82.20
2023-02-25T22:51:42.827Z,82.30
2023-02-25T22:54:18.743Z,82.20
2023-02-25T22:56:47.786Z,82.00
2023-02-25T22:59:14.596Z,81.70
2023-02-25T23:01:41.725Z,81.70
2023-02-25T23:04:08.604Z,81.70
2023-02-25T23:06:43.544Z,81.80
2023-02-25T23:09:13.565Z,81.90
2023-02-25T23:11:42.327Z,82.50
2023-02-25T23:14:09.888Z,82.10
2023-02-25T23:16:46.995Z,82.20
2023-02-25T23:19:18.304Z,82.00
2023-02-25T23:21:45.657Z,82.10
2023-02-25T23:24:18.977Z,82.50
2023-02-25T23:26:50.643Z,82.50
2023-02-25T23:29:17.939Z,82.30
2023-02-25T23:31:48.341Z,82.60
2023-02-25T23:34:23.307Z,82.40
2023-02-25T23:36:50.876Z,82.30
2023-02-25T23:39:18.490Z,82.50
2023-02-25T23:41:45.541Z,82.40
2023-02-25T23:44:14.110Z,82.60
2023-02-25T23:46:45.100Z,82.80
2023-02-25T23:49:15.044Z,82.80
2023-02-25T23:51:45.165Z,82.70
2023-02-25T23:54:16.972Z,82.30
2023-02-25T23:56:43.938Z,82.00
2023-02-25T23:59:11.470Z,82.20
